Chestnut Mountain, Georgia
Current Conditions -  °F | °C
As of 10:53 PM on Monday 22 Dec 2014 (Local Time) from KGVL Reporting Station
Light Rain Light Rain  
Wind Chill: 35°   Ceiling: 400
Heat Index: 41°   Visibility: 9mi
Dew Point: 40°   Wind: 10mph
Humidity: 96%   Direction: 70°ENE
Pressure: 29.96"   Gusts: NA
Location:  34.17°N, 83.84°W
Report Text: KGVL 230353Z AUTO 07009KT 9SM -RA OVC004 05/04 A2996 RMK AO2 SLP147 P0004 T00500044
Loading
Personal Weather Stations






























Interactive Weather Map New forecast layout! Learn more

10-Day Weather Forecast

Advertisements
Track Severe Weather on mobile